Terminal Aerodrome Forecast
Issued by NWS Medford, OR

Home | Current Version | Previous Version | Text Only | Print | Product List | Glossary On
Versions: 1 2 3 4 5 6 7 8 9 10 11 12 13 14 15 16 17 18 19 20 21 22
380
FTUS46 KMFR 240539
TAFMFR
TAF
KMFR 240539Z 2406/2506 03004KT P6SM -RA BKN050 OVC070 WS020/18030KT
     FM240800 14012G20KT P6SM -RA BKN050 OVC070
     FM241000 17006KT 5SM -RA BR SCT025 BKN035 OVC060
     FM241800 27010KT P6SM VCSH SCT040 OVC060=

USA.gov is the U.S. government's official web portal to all federal, state and local government web resources and services.